• Join FlightAware (Why Join?)
  • Login
  • US Flag 
07:54AM EDT


 

Airport Tracker/Info


-or-


 

Live Flight TrackerFlight Track Log ✈ N6198Q ✈ 03-Oct-2013 ✈ KAPF - KTMB

Flight Track Log - Related Links

Times and Time Zones

All times are in EDT time to prevent confusion due to time zone crossing. See the N6198Q flight status page for this flight to view local times or setup timezone preferences in your user account.

Time Position Orientation Groundspeed Altitude Reporting Facility
EDT Latitude Longitude Course Direction KTS MPH feet Rate Location/Type
07:47PM 26.1028 -81.6417 101° East  Level Estimated
07:48PM 26.1010 -81.6176 95° East  Level FlightAware Approximate
07:48PM 26.1469 -81.6194 96° East 73 84 3,000  Level Miami Center
07:49PM 26.0992 -81.5935 95° East  Level FlightAware Approximate
07:49PM 26.1475 -81.5986 88° East 68 78 3,400  Level Miami Center
07:50PM 26.0974 -81.5695 95° East  Level FlightAware Approximate
07:50PM 26.1461 -81.5778 94° East 63 72 3,700  Level Miami Center
07:51PM 26.0956 -81.5454 95° East  Level FlightAware Approximate
07:51PM 26.1489 -81.5569 82° East 63 72 3,900  Level Miami Center
07:52PM 26.0868 -81.5233 106° East  Level Estimated
07:52PM 26.1414 -81.5358 112° Southeast 68 78 4,300  Level Miami Center
07:53PM 26.0845 -81.4993 96° East  Level FlightAware Approximate
07:53PM 26.1314 -81.5194 124° Southeast 68 78 4,600  Level Miami Center
07:54PM 26.0822 -81.4753 96° East  Level FlightAware Approximate
07:54PM 26.1236 -81.5028 117° Southeast 63 72 4,900  Level Miami Center
07:55PM 26.1158 -81.4817 112° Southeast 63 72 5,100  Climbing Miami Center
07:56PM 26.1039 -81.4628 125° Southeast 63 72 5,000 -60 Descending Miami Center
07:57PM 26.0942 -81.4392 115° Southeast 79 91 5,000  Level Miami Center
07:58PM 26.0825 -81.4181 122° Southeast 79 91 5,100  Climbing Miami Center
07:59PM 26.0706 -81.3967 122° Southeast 79 91 5,000  Descending Miami Center
08:00PM 26.0567 -81.3756 126° Southeast 79 91 5,100  Climbing Miami Center
08:01PM 26.0425 -81.3542 126° Southeast 79 91 5,100 -60 Level Miami Center
08:02PM 26.0286 -81.3350 129° Southeast 84 97 5,000  Descending Miami Center
08:03PM 26.0128 -81.3092 124° Southeast 84 97 5,100  Climbing Miami Center
08:04PM 25.9986 -81.2878 126° Southeast 84 97 5,100 -60 Level Miami Center
08:05PM 25.9847 -81.2642 123° Southeast 79 91 5,000  Descending Miami Center
08:06PM 25.9750 -81.2431 117° Southeast 79 91 5,100  Climbing Miami Center
08:07PM 25.9631 -81.2217 122° Southeast 79 91 5,100  Level Miami Center
08:08PM 25.9556 -81.1983 110° East 85 98 5,100  Level Miami Center
08:09PM 25.9436 -81.1747 119° Southeast 85 98 5,100 -60 Level Miami Center
08:10PM 25.9275 -81.1533 130° Southeast 85 98 5,000 -60 Descending Miami Center
08:11PM 25.9178 -81.1325 117° Southeast 85 98 5,000  Level Miami Center
08:12PM 25.9036 -81.1111 126° Southeast 80 92 5,000 60 Level Miami Center
08:13PM 25.8936 -81.1014 139° Southeast 84 97 5,100 60 Climbing Miami Center
08:13PM 25.8897 -81.0897 110° East 80 92 5,100  Level Miami Center
08:14PM 25.8836 -81.0872 160° South 82 94 5,100  Level Miami Center
08:14PM 25.8800 -81.0664 101° East 80 92 5,100  Level Miami Center
08:15PM 25.8717 -81.0636 163° South 84 97 5,100 -120 Level Miami Center
08:15PM 25.8617 -81.0450 121° Southeast 88 101 5,000 -60 Descending Miami Center
08:16PM 25.8542 -81.0217 110° East 80 92 5,000  Level Miami Center
08:16PM 25.8478 -81.0192 161° South 90 104 5,000  Level Miami Center
08:17PM 25.8339 -80.9956 123° Southeast 85 98 5,000 -180 Level Miami Center
08:19PM 25.8181 -80.9697 124° Southeast 90 104 4,700 -360 Descending Miami Center
08:19PM 25.8119 -80.9556 116° Southeast 80 92 4,400 -420 Descending Miami Center
08:20PM 25.8017 -80.9506 156° South 89 102 4,300 -360 Descending Miami Center
08:21PM 25.7897 -80.9317 125° Southeast 88 101 4,000 -420 Descending Miami Center
08:21PM 25.7797 -80.9131 121° Southeast 85 98 3,600 -540 Descending Miami Center
08:22PM 25.7675 -80.9033 144° Southeast 93 107 3,400 -420 Descending Miami Center
08:22PM 25.7617 -80.8892 115° Southeast 91 105 3,200 -300 Descending Miami Center
08:23PM 25.7514 -80.8797 140° Southeast 94 108 3,100 -420 Descending Miami Center
08:24PM 25.7375 -80.8539 121° Southeast 91 105 2,600 -420 Descending Miami Center
08:25PM 25.7233 -80.8372 133° Southeast 95 109 2,400 -360 Descending Miami Center
08:26PM 25.7053 -80.8136 130° Southeast 95 109 2,000 -240 Descending Miami Center
08:27PM 25.6889 -80.7969 137° Southeast 78 90 2,000  Level Miami Center
08:28PM 25.6811 -80.7758 112° Southeast 72 83 2,000  Level Miami Center
08:29PM 25.6692 -80.7547 122° Southeast 77 89 2,000  Level Miami Center
08:30PM 25.6553 -80.7336 126° Southeast 83 96 2,000  Level Miami Center
08:31PM 25.6347 -80.7214 152° Southeast 88 101 2,100  Climbing Miami Center
08:32PM 25.6269 -80.6981 110° East 88 101 2,000 -60 Descending Miami Center
08:33PM 25.6317 -80.6731 78° East 79 91 2,000  Level Miami Center
08:34PM 25.6322 -80.6522 88° East 75 86 2,100  Climbing Miami Center
08:35PM 25.6331 -80.6222 88° East 84 97 2,000 -60 Descending Miami Center
08:36PM 25.6336 -80.6017 88° East 75 86 2,000  Level Miami Center
08:37PM 25.6364 -80.5764 83° East 72 83 2,100  Climbing Miami Center
08:38PM 25.6347 -80.5556 95° East 78 90 2,000 -300 Descending Miami Center
08:39PM 25.6353 -80.5281 89° East 85 98 1,500 -480 Descending Miami Center
08:40PM 25.6381 -80.5050 82° East 67 77 1,000 -420 Descending Miami Center
08:41PM 25.6406 -80.4819 83° East 66 76 700 -300 Descending Miami Center
08:42PM 25.6392 -80.4636 95° East 59 68 500 -240 Descending Miami Center
08:44PM 25.6344 -80.4255 98° East  Level FlightAware Approximate
08:51PM 25.6333 -80.4167 86° East  Level FlightAware Approximate